Racecast

Ryen Scott

Big Valley TC (CA) · 11-12 · Compare head to head

Athlete rating 109.9
Best race 112.1 TF
Races 62
Seasons 4 2012 — 2015

Track & Field

2015 TF 110.6

Big Valley TC (CA) · Grade 11-12

Date Meet Event Result Place Rating Difficulty PR/SR Flags
2015-04-11 Big Valley Track Club Invitational 400m 1:10.5 6th · 1st on team -0.043 SR
2015-04-11 Big Valley Track Club Invitational 800m 2:46.65 3rd · 1st on team 109.0 -0.043
2015-03-28 Contra Costa Cheetahs 100m 14.93 38th · 2nd on team -0.030 ★PR SR
2015-03-28 Contra Costa Cheetahs 200m 30.28 12th · 2nd on team -0.030 ★PR SR
2015-03-28 Contra Costa Cheetahs 800m 2:44.26 3rd · 1st on team 112.1 -0.030 ★PR ★R SR RSR

2014 TF 100.7

Big Valley TC (CA) · Grade 9-10

Date Meet Event Result Place Rating Difficulty PR/SR Flags
2014-06-20 USATF Pacific Assoc. Junior Olympics (Top 8) 100m 14.99 12th · 3rd on team -0.038 PR SR
2014-06-20 USATF Pacific Assoc. Junior Olympics (Top 8) 400m 1:10.47 6th · 3rd on team -0.038
2014-06-20 USATF Pacific Assoc. Junior Olympics (Top 8) 400m 1:08.35 3rd · 2nd on team -0.038 ★PR SR
2014-06-20 USATF Pacific Assoc. Junior Olympics (Top 8) 200m 31.92 19th · 3rd on team -0.038
2014-06-20 USATF Pacific Assoc. Junior Olympics (Top 8) 100m 15.24 14th · 4th on team -0.038
2014-05-31 Pacific Association Championships (PAC) 400m 1:08.4 3rd · 2nd on team -0.032 PR SR
2014-05-31 Pacific Association Championships (PAC) 200m 30.65 9th · 4th on team -0.032 PR SR
2014-05-31 Pacific Association Championships (PAC) 200m 30.43 6th · 3rd on team -0.032 PR SR
2014-05-31 Pacific Association Championships (PAC) 100m 15.19 17th · 3rd on team -0.032 PR SR
2014-05-24 Central Valley Roadrunners 200m 30.66 5th · 3rd on team -0.043 PR SR
2014-05-24 Central Valley Roadrunners 400m 1:10.53 1st · 1st on team -0.043 PR SR
2014-05-24 Central Valley Roadrunners 200m 31.54 7th · 4th on team -0.043
2014-04-12 Stocton Saints 400m 1:11.07 2nd · 1st on team -0.043 PR SR
2014-04-12 Stocton Saints 800m 2:55.75 1st · 1st on team 103.3 -0.043 PR R SR RSR
2014-04-12 Stocton Saints 200m 31.69 3rd · 1st on team -0.043 PR SR
2014-04-05 Sacramento Speed Showcase 200m 32.65 4th · 1st on team -0.042 PR SR
2014-04-05 Sacramento Speed Showcase 400m 1:13.19 5th · 1st on team -0.042 PR SR
2014-04-05 Sacramento Speed Showcase 800m 2:57.01 6th · 1st on team 102.5 -0.042 PR R SR RSR
2014-03-29 East County Cheetahs TC 800m 3:11.57 2nd · 1st on team 96.2 -0.030 PR R SR RSR
2014-03-29 East County Cheetahs TC 100m 16.32 7th · 1st on team -0.030
2014-03-29 East County Cheetahs TC 400m 1:21.31 5th · 1st on team -0.030
2014-03-22 RPM 400m 1:17.74 6th · 1st on team -0.019 SR
2014-03-22 RPM 100m 15.94 8th · 1st on team -0.019 SR

2013 TF 92.4

Dynasty (CA) · Grade 9-10

Date Meet Event Result Place Rating Difficulty PR/SR Flags
2013-06-21 Pacific Association Junior Olympics (3-day) 200m 33.49 21st · 1st on team -0.034
2013-06-21 Pacific Association Junior Olympics (3-day) 100m 15.82 26th · 1st on team -0.034
2013-06-21 Pacific Association Junior Olympics (3-day) 400m 1:15.04 18th · 1st on team -0.034 PR SR
2013-06-08 Pacific Association Youth Championship (PAC) - 2-day meet 400m 1:17.26 8th · 1st on team -0.032
2013-06-08 Pacific Association Youth Championship (PAC) - 2-day meet 200m 33.65 23rd · 1st on team -0.032
2013-06-08 Pacific Association Youth Championship (PAC) - 2-day meet 100m 15.74 20th · 1st on team -0.032
2013-06-01 100 Black Men Tommie Smith 100m 15.74 8th · 1st on team -0.041
2013-06-01 100 Black Men Tommie Smith 400m 1:16.91 3rd · 1st on team -0.041
2013-06-01 100 Black Men Tommie Smith 100m 15.85 9th · 2nd on team -0.041
2013-06-01 100 Black Men Tommie Smith 200m 33 4th · 1st on team -0.041
2013-05-25 Central Valley Roadrunners (2-day meet) 200m 32.73 16th · 1st on team -0.043 PR SR
2013-05-25 Central Valley Roadrunners (2-day meet) 100m 15.88 16th · 2nd on team -0.043
2013-05-25 Central Valley Roadrunners (2-day meet) 100m 15.35 12th · 1st on team -0.043 PR SR
2013-05-25 Central Valley Roadrunners (2-day meet) 400m 1:18.05 8th · 1st on team -0.043
2013-04-13 CA Track Club 100m 16.44 4th · 1st on team -0.048
2013-04-06 Sacramento Speed Showcase 200m 32.87 8th · 1st on team -0.042 PR SR
2013-04-06 Sacramento Speed Showcase 400m 1:20.51 14th · 1st on team -0.042
2013-04-06 Sacramento Speed Showcase 100m 15.69 11th · 1st on team -0.042 PR SR
2013-03-30 Stockton Saints 100m 15.8 17th · 1st on team -0.035 PR SR
2013-03-30 Stockton Saints 800m 3:16.94 4th · 1st on team 92.4 -0.035 PR R SR RSR
2013-03-30 Stockton Saints 400m 1:18.42 10th · 1st on team -0.035
2013-03-23 Comets Youth Meet 200m 34 6th · 1st on team -0.047 PR SR
2013-03-23 Comets Youth Meet 400m 1:16.48 4th · 1st on team -0.047 PR SR
2013-03-23 Comets Youth Meet 100m 15.99 4th · 1st on team -0.047 PR SR

2012 TF

Dynasty (CA) · Grade 7-8

Date Meet Event Result Place Rating Difficulty PR/SR Flags
2012-06-15 AAU Area 23 National Qualifier 200m 34.28 3rd · 1st on team -0.042 PR SR
2012-06-15 AAU Area 23 National Qualifier 100m 16.78 4th · 1st on team -0.042
2012-05-26 Central Valley Roadrunners Track Club 100m 17.01 5th · 1st on team -0.036
2012-05-26 Central Valley Roadrunners Track Club 100m 17.3 7th · 2nd on team -0.036
2012-05-19 3M Track Meet 100m 16.42 12th · 1st on team -0.039 PR SR
2012-05-19 3M Track Meet 200m 35.59 6th · 1st on team -0.039 PR SR
2012-05-19 3M Track Meet 100m 16.79 15th · 2nd on team -0.039
2012-05-05 Hercules Running Rebels / Top Pacers Invitational 100m 17.22 17th · 1st on team -0.047 PR SR
2012-05-05 Hercules Running Rebels / Top Pacers Invitational 200m 38.23 22nd · 2nd on team -0.047 PR SR
2012-04-21 Shor / Sheppard Classic 400m 1:28.5 12th · 1st on team -0.036 PR SR